Time,TemperatureF,DewpointF,PressureIn,WindDirection,WindDirectionDegrees,WindSpeedMPH,WindSpeedGustMPH,Humidity,HourlyPrecipIn,Conditions,Clouds,dailyrainin,SoftwareType,DateUTC
2013-08-30 00:25:00,72.0,69.0,-100.00,SSE,158,0.0,2.0,91,0.00,,,0.00,,2013-08-30 04:25:00,
2013-08-30 00:54:00,72.0,70.0,-100.00,SSE,158,1.0,3.0,92,0.00,,,0.00,,2013-08-30 04:54:00,
2013-08-30 01:23:00,72.0,70.0,-100.00,SSE,158,0.0,0.0,94,0.00,,,0.00,,2013-08-30 05:23:00,
2013-08-30 01:52:00,71.0,69.0,-100.00,SSE,158,0.0,0.0,94,0.00,,,0.00,,2013-08-30 05:52:00,
2013-08-30 02:22:00,71.0,69.0,-100.00,SSE,158,0.0,0.0,95,0.00,,,0.00,,2013-08-30 06:22:00,
2013-08-30 02:53:00,70.0,69.0,-100.00,SSE,158,0.0,0.0,97,0.00,,,0.00,,2013-08-30 06:53:00,
2013-08-30 03:22:00,70.0,69.0,-100.00,SSE,158,0.0,0.0,98,0.00,,,0.00,,2013-08-30 07:22:00,
2013-08-30 03:53:00,69.0,68.0,-100.00,SSE,158,0.0,0.0,98,0.00,,,0.00,,2013-08-30 07:53:00,
2013-08-30 04:22:00,69.0,68.0,-100.00,SSE,158,0.0,0.0,98,0.00,,,0.00,,2013-08-30 08:22:00,
2013-08-30 04:52:00,69.0,69.0,-100.00,SSE,158,0.0,0.0,99,0.00,,,0.00,,2013-08-30 08:52:00,
2013-08-30 05:22:00,69.0,69.0,-100.00,SSE,158,0.0,0.0,99,0.00,,,0.00,,2013-08-30 09:22:00,
2013-08-30 05:53:00,68.0,67.0,-100.00,SSE,158,0.0,0.0,98,0.00,,,0.00,,2013-08-30 09:53:00,
2013-08-30 06:23:00,68.0,67.0,-100.00,SSE,158,0.0,0.0,98,0.00,,,0.00,,2013-08-30 10:23:00,
2013-08-30 06:53:00,68.0,66.0,-100.00,SE,135,0.0,0.0,94,0.00,,,0.00,,2013-08-30 10:53:00,
2013-08-30 07:22:00,69.0,66.0,-100.00,SW,225,0.0,0.0,91,0.00,,,0.00,,2013-08-30 11:22:00,
2013-08-30 07:52:00,69.0,65.0,-100.00,SW,225,0.0,0.0,88,0.00,,,0.00,,2013-08-30 11:52:00,
2013-08-30 08:21:00,69.0,65.0,-100.00,South,180,1.0,3.0,87,0.00,,,0.00,,2013-08-30 12:21:00,
2013-08-30 08:52:00,70.0,65.0,-100.00,SE,135,0.0,0.0,85,0.00,,,0.00,,2013-08-30 12:52:00,
2013-08-30 09:21:00,71.0,65.0,-100.00,South,180,0.0,6.0,82,0.00,,,0.00,,2013-08-30 13:21:00,
2013-08-30 09:52:00,72.0,65.0,-100.00,South,180,1.0,3.0,79,0.00,,,0.00,,2013-08-30 13:52:00,
2013-08-30 10:21:00,74.0,66.0,-100.00,SSE,158,3.0,6.0,76,0.00,,,0.00,,2013-08-30 14:21:00,
2013-08-30 10:52:00,77.0,68.0,-100.00,SSW,203,8.0,13.0,73,0.00,,,0.00,,2013-08-30 14:52:00,
2013-08-30 11:22:00,78.0,68.0,-100.00,SW,225,7.0,9.0,72,0.00,,,0.00,,2013-08-30 15:22:00,
2013-08-30 11:54:00,80.0,68.0,-100.00,WSW,248,5.0,9.0,68,0.00,,,0.00,,2013-08-30 15:54:00,
2013-08-30 12:25:00,81.0,69.0,-100.00,SW,225,6.0,10.0,66,0.00,,,0.00,,2013-08-30 16:25:00,
2013-08-30 12:53:00,81.0,67.0,-100.00,SW,225,7.0,8.0,63,0.00,,,0.00,,2013-08-30 16:53:00,
2013-08-30 13:23:00,82.0,67.0,-100.00,South,180,5.0,7.0,60,0.00,,,0.00,,2013-08-30 17:23:00,
2013-08-30 13:53:00,83.0,67.0,-100.00,SSW,203,5.0,10.0,58,0.00,,,0.00,,2013-08-30 17:53:00,
2013-08-30 14:22:00,83.0,66.0,-100.00,SSW,203,5.0,13.0,56,0.00,,,0.00,,2013-08-30 18:22:00,
2013-08-30 14:52:00,84.0,66.0,-100.00,SSW,203,8.0,12.0,54,0.00,,,0.00,,2013-08-30 18:52:00,
2013-08-30 15:22:00,84.0,66.0,-100.00,SE,135,3.0,9.0,55,0.00,,,0.00,,2013-08-30 19:22:00,
2013-08-30 15:53:00,84.0,65.0,-100.00,SW,225,10.0,17.0,53,0.00,,,0.00,,2013-08-30 19:53:00,
2013-08-30 16:22:00,84.0,65.0,-100.00,SSW,203,12.0,17.0,53,0.00,,,0.00,,2013-08-30 20:22:00,
2013-08-30 16:52:00,85.0,66.0,-100.00,South,180,1.0,7.0,54,0.00,,,0.00,,2013-08-30 20:52:00,
2013-08-30 17:22:00,84.0,66.0,-100.00,SSW,203,7.0,10.0,55,0.00,,,0.00,,2013-08-30 21:22:00,
2013-08-30 17:55:00,84.0,66.0,-100.00,WSW,248,6.0,9.0,55,0.00,,,0.00,,2013-08-30 21:55:00,
2013-08-30 18:24:00,84.0,67.0,-100.00,SW,225,8.0,13.0,56,0.00,,,0.00,,2013-08-30 22:24:00,
2013-08-30 18:54:00,83.0,68.0,-100.00,SW,225,5.0,8.0,60,0.00,,,0.00,,2013-08-30 22:54:00,
2013-08-30 19:22:00,82.0,68.0,-100.00,SW,225,0.0,0.0,63,0.00,,,0.00,,2013-08-30 23:22:00,
2013-08-30 19:53:00,81.0,69.0,-100.00,SE,135,2.0,2.0,66,0.00,,,0.00,,2013-08-30 23:53:00,
2013-08-30 20:22:00,80.0,69.0,-100.00,SW,225,2.0,7.0,69,0.00,,,0.00,,2013-08-31 00:22:00,
2013-08-30 20:52:00,80.0,69.0,-100.00,NW,315,0.0,0.0,70,0.00,,,0.00,,2013-08-31 00:52:00,
2013-08-30 21:22:00,80.0,72.0,-100.00,NNW,338,1.0,2.0,76,0.00,,,0.00,,2013-08-31 01:22:00,
2013-08-30 21:52:00,78.0,72.0,-100.00,NW,315,0.0,0.0,82,0.00,,,0.00,,2013-08-31 01:52:00,
2013-08-30 22:22:00,77.0,72.0,-100.00,North,0,1.0,3.0,84,0.00,,,0.00,,2013-08-31 02:22:00,
2013-08-30 22:52:00,77.0,73.0,-100.00,NNW,338,1.0,6.0,87,0.00,,,0.00,,2013-08-31 02:52:00,
2013-08-30 23:22:00,76.0,71.0,-100.00,North,0,0.0,0.0,85,0.00,,,0.00,,2013-08-31 03:22:00,
2013-08-30 23:54:00,76.0,71.0,-100.00,North,0,0.0,0.0,84,0.00,,,0.00,,2013-08-31 03:54:00,